Friday, January 19, 2018, 10:40 AM EST
Back to Local

KDYL, Doylestown Airport

Location: Doylestown, PA, United States Lat: 40.333
Local Time: 10:40 AM EST (15:40 GMT) Lon: -75.117
Time Zone: US/Eastern Elev: 393 ft

Show me the last for .
Show Decoded

2018-01-19 09:54 METAR KDYL 191454Z AUTO 24006KT 10SM CLR M02/M10 A3009 RMK AO2 SLP198 T10221100
                 53008 =
2018-01-19 08:54 METAR KDYL 191354Z AUTO 24003KT 10SM CLR M04/M10 A3007 RMK AO2 SLP195 T10441100
                 =
2018-01-19 07:54 METAR KDYL 191254Z AUTO 18003KT 10SM CLR M07/M11 A3006 RMK AO2 SLP191 T10671111
                 =
2018-01-19 06:54 METAR KDYL 191154Z AUTO 20004KT 10SM CLR M08/M12 A3006 RMK AO2 SLP190 T10831117
                 11061 21100 50004 =
2018-01-19 05:54 METAR KDYL 191054Z AUTO 00000KT 10SM CLR M09/M12 A3006 RMK AO2 SLP191 T10891117
                 =
2018-01-19 04:54 METAR KDYL 190954Z AUTO 00000KT 10SM CLR M07/M12 A3005 RMK AO2 SLP187 T10721117
                 =
2018-01-19 03:54 METAR KDYL 190854Z AUTO 00000KT 10SM CLR M07/M12 A3005 RMK AO2 SLP185 T10671117
                 53002 =
2018-01-19 02:54 METAR KDYL 190754Z AUTO 00000KT 10SM CLR M07/M12 A3004 RMK AO2 SLP182 T10721117
                 =
2018-01-19 01:54 METAR KDYL 190654Z AUTO 00000KT 10SM CLR M08/M12 A3003 RMK AO2 SLP180 T10831117
                 =
2018-01-19 00:54 METAR KDYL 190554Z AUTO VRB03KT 10SM CLR M07/M12 A3004 RMK AO2 SLP183 T10721117
                 11033 21078 58012 =
2018-01-18 23:54 METAR KDYL 190454Z AUTO 00000KT 10SM CLR M06/M12 A3006 RMK AO2 SLP190 T10611117
                 410061100 =
2018-01-18 22:54 METAR KDYL 190354Z AUTO 25003KT 10SM CLR M06/M12 A3008 RMK AO2 SLP195 T10611117
                 =
2018-01-18 21:54 METAR KDYL 190254Z AUTO 00000KT 10SM CLR M06/M12 A3008 RMK AO2 SLP196 T10611122
                 51014 =
2018-01-18 20:54 METAR KDYL 190154Z AUTO 00000KT 10SM CLR M06/M12 A3007 RMK AO2 SLP194 T10561122
                 =
2018-01-18 19:54 METAR KDYL 190054Z AUTO 28003KT 10SM CLR M04/M12 A3005 RMK AO2 SLP186 T10391122
                 =
2018-01-18 18:54 METAR KDYL 182354Z AUTO 29004KT 10SM CLR M03/M12 A3004 RMK AO2 SLP182 T10331122
                 11006 21039 53023 =
2018-01-18 17:54 METAR KDYL 182254Z AUTO 28005KT 10SM CLR M03/M12 A3001 RMK AO2 SLP173 T10281122
                 =
2018-01-18 16:54 METAR KDYL 182154Z AUTO 30012G19KT 10SM CLR M02/M13 A2998 RMK AO2 SLP161
                 T10221128 =
2018-01-18 15:54 METAR KDYL 182054Z AUTO 31009G19KT 10SM CLR M01/M13 A2997 RMK AO2 SLP158
                 T10111128 55007 =
2018-01-18 14:54 METAR KDYL 181954Z AUTO 31015G21KT 10SM CLR M01/M13 A2995 RMK AO2 SLP153
                 T10111128 =
2018-01-18 13:54 METAR KDYL 181854Z AUTO 31011G22KT 10SM CLR M01/M13 A2996 RMK AO2 SLP155
                 T10111128 =
2018-01-18 12:54 METAR KDYL 181754Z AUTO 29011KT 10SM CLR M02/M13 A2999 RMK AO2 SLP165 T10171128
                 11017 21100 58031 =
2018-01-18 11:54 METAR KDYL 181654Z AUTO 29011G18KT 10SM CLR M03/M13 A3003 RMK AO2 SLP179
                 T10281133 =
2018-01-18 10:54 METAR KDYL 181554Z AUTO 30010KT 10SM CLR M04/M13 A3006 RMK AO2 SLP192 T10391133
                 =

Support USWX by starting your Amazon purchase here.